• Join FlightAware (Why Join?)
  • Login
  • US Flag 
01:41AM EDT


 

Airport Tracker/Info


-or-


 

Live Flight TrackerFlight Track Log ✈ KFS915 ✈ 10-Jul-2013 ✈ MMTO / TLC - KLRD

Flight Track Log - Related Links

Times and Time Zones

All times are in EDT time to prevent confusion due to time zone crossing. See the KFS915 flight status page for this flight to view local times or setup timezone preferences in your user account.

Time Position Orientation Groundspeed Altitude Reporting Facility
EDT Latitude Longitude Course Direction KTS MPH feet Rate Location/Type
09:22AM 24.9260 -100.2338 13° North  Level FlightAware Approximate
09:23AM 25.0361 -100.2045 14° North  Level FlightAware Approximate
09:24AM 25.1462 -100.1751 14° North  Level FlightAware Approximate
09:25AM 25.2563 -100.1457 14° North  Level FlightAware Approximate
09:26AM 25.3664 -100.1162 14° North  Level FlightAware Approximate
09:27AM 25.4765 -100.0867 14° North  Level FlightAware Approximate
09:28AM 25.5866 -100.0571 14° North  Level FlightAware Approximate
09:29AM 25.6967 -100.0274 14° North  Level FlightAware Approximate
09:30AM 25.8067 -99.9977 14° North  Level FlightAware Approximate
09:31AM 25.9168 -99.9680 14° North  Level FlightAware Approximate
09:32AM 26.0269 -99.9382 14° North  Level FlightAware Approximate
09:33AM 26.1369 -99.9084 14° North  Level FlightAware Approximate
09:34AM 26.2470 -99.8785 14° North  Level FlightAware Approximate
09:35AM 26.3571 -99.8486 14° North  Level FlightAware Approximate
09:36AM 26.4671 -99.8186 14° North  Level FlightAware Approximate
09:37AM 26.5772 -99.7886 14° North  Level FlightAware Approximate
09:38AM 26.6872 -99.7585 14° North  Level FlightAware Approximate
09:39AM 26.7972 -99.7283 14° North  Level FlightAware Approximate
09:40AM 26.9072 -99.6981 14° North  Level FlightAware Approximate
09:41AM 27.0173 -99.6678 14° North  Level FlightAware Approximate
09:42AM 27.1273 -99.6375 14° North  Level FlightAware Approximate
09:43AM 27.2373 -99.6071 14° North  Level FlightAware Approximate
09:44AM 27.3473 -99.5767 14° North  Level FlightAware Approximate
09:44AM 27.4994 -99.5706 42° Northeast 298 343 6,300  Level Houston Center
09:45AM 27.4487 -99.5347 42° Northeast  Level FlightAware Approximate
09:45AM 27.5925 -99.5858 352° North 288 331 5,000  Level Houston Center
09:46AM 27.5333 -99.4500 42° Northeast  Level FlightAware Approximate
09:46AM 27.6489 -99.5817 North 237 273 4,900  Level Houston Center
09:47AM 27.5442 -99.4616 42° Northeast  Level Estimated
09:47AM 27.7017 -99.5794 North 205 236 4,600  Level Houston Center
09:48AM 27.5442 -99.4616 42° Northeast  Level Estimated
09:48AM 27.7558 -99.5747 North 197 227 3,600  Level Houston Center
09:49AM 27.5442 -99.4616 42° Northeast  Level Estimated
09:49AM 27.8094 -99.5619 12° North 209 241 2,600  Level Houston Center
09:50AM 27.8175 -99.5092 80° East 188 216 2,500 -60 Descending Houston Center
09:51AM 27.7661 -99.4678 145° Southeast 196 226 2,500  Level Houston Center
09:52AM 27.7069 -99.4553 169° South 212 244 2,500 -240 Level Houston Center
09:53AM 27.6508 -99.4578 182° South 207 238 2,100 -600 Descending Houston Center
09:54AM 27.6033 -99.4592 181° South 189 217 1,300 -720 Descending Houston Center
09:55AM 27.5717 -99.4617 184° South 155 178 700 -600 Descending Houston Center
09:57AM 27.5442 -99.4616 171° South  Level Estimated
10:04AM 27.5442 -99.4616 171° South  Level Estimated
10:05AM 27.5442 -99.4616 171° South  Level Estimated